sensor_id;sensor_type;location;lat;lon;timestamp;pressure;altitude;pressure_sealevel;temperature;humidity
70571;BME280;58135;50.948;-1.458;2022-12-11T00:00:15;100595.28;;;2.61;15.38
70571;BME280;58135;50.948;-1.458;2022-12-11T00:02:40;100595.29;;;2.59;15.32
70571;BME280;58135;50.948;-1.458;2022-12-11T00:05:07;100596.82;;;3.40;15.27
70571;BME280;58135;50.948;-1.458;2022-12-11T00:07:32;100594.69;;;1.38;15.18
70571;BME280;58135;50.948;-1.458;2022-12-11T00:09:57;100595.95;;;0.20;15.17
70571;BME280;58135;50.948;-1.458;2022-12-11T00:12:23;100595.41;;;0.85;15.22
70571;BME280;58135;50.948;-1.458;2022-12-11T00:14:49;100594.42;;;-0.10;15.21
70571;BME280;58135;50.948;-1.458;2022-12-11T00:17:15;100594.71;;;2.50;15.19
70571;BME280;58135;50.948;-1.458;2022-12-11T00:19:40;100592.02;;;0.70;15.27
70571;BME280;58135;50.948;-1.458;2022-12-11T00:22:05;100590.63;;;0.63;15.30
70571;BME280;58135;50.948;-1.458;2022-12-11T00:24:31;100586.40;;;1.53;15.35
70571;BME280;58135;50.948;-1.458;2022-12-11T00:26:56;100584.99;;;1.60;15.37
70571;BME280;58135;50.948;-1.458;2022-12-11T00:29:22;100584.32;;;-0.21;15.36
70571;BME280;58135;50.948;-1.458;2022-12-11T00:31:47;100578.97;;;-0.33;15.45
70571;BME280;58135;50.948;-1.458;2022-12-11T00:34:13;100578.68;;;1.40;15.52
70571;BME280;58135;50.948;-1.458;2022-12-11T00:36:38;100575.70;;;1.35;15.40
70571;BME280;58135;50.948;-1.458;2022-12-11T00:39:04;100569.10;;;0.41;15.43
70571;BME280;58135;50.948;-1.458;2022-12-11T00:41:30;100563.82;;;1.36;15.43
70571;BME280;58135;50.948;-1.458;2022-12-11T00:43:55;100560.84;;;1.37;15.38
70571;BME280;58135;50.948;-1.458;2022-12-11T00:46:20;100554.25;;;1.39;15.34
70571;BME280;58135;50.948;-1.458;2022-12-11T00:48:46;100552.27;;;-1.32;15.34
70571;BME280;58135;50.948;-1.458;2022-12-11T00:51:11;100549.41;;;1.25;15.26
70571;BME280;58135;50.948;-1.458;2022-12-11T00:53:36;100549.60;;;1.17;15.21
70571;BME280;58135;50.948;-1.458;2022-12-11T00:56:08;100553.12;;;1.21;15.21
70571;BME280;58135;50.948;-1.458;2022-12-11T00:58:27;100555.26;;;1.26;15.26
70571;BME280;58135;50.948;-1.458;2022-12-11T01:00:52;100560.47;;;1.12;15.25
70571;BME280;58135;50.948;-1.458;2022-12-11T01:03:17;100566.18;;;0.02;15.17
70571;BME280;58135;50.948;-1.458;2022-12-11T01:05:50;100565.81;;;-0.08;15.19
70571;BME280;58135;50.948;-1.458;2022-12-11T01:08:09;100558.22;;;-1.04;15.10
70571;BME280;58135;50.948;-1.458;2022-12-11T01:10:34;100553.84;;;-0.32;15.07
70571;BME280;58135;50.948;-1.458;2022-12-11T01:13:03;100555.95;;;-0.33;15.10
70571;BME280;58135;50.948;-1.458;2022-12-11T01:15:27;100559.81;;;0.63;15.09
70571;BME280;58135;50.948;-1.458;2022-12-11T01:17:51;100563.33;;;1.45;15.17
70571;BME280;58135;50.948;-1.458;2022-12-11T01:20:16;100567.74;;;-0.53;15.12
70571;BME280;58135;50.948;-1.458;2022-12-11T01:22:42;100566.88;;;0.08;15.11
70571;BME280;58135;50.948;-1.458;2022-12-11T01:25:07;100568.31;;;-0.23;15.18
70571;BME280;58135;50.948;-1.458;2022-12-11T01:27:31;100572.80;;;-0.15;15.26
70571;BME280;58135;50.948;-1.458;2022-12-11T01:29:56;100574.31;;;-0.89;15.24
70571;BME280;58135;50.948;-1.458;2022-12-11T01:32:22;100566.85;;;0.96;15.23
70571;BME280;58135;50.948;-1.458;2022-12-11T01:34:47;100559.88;;;0.04;15.11
70571;BME280;58135;50.948;-1.458;2022-12-11T01:37:13;100555.89;;;-1.05;15.09
70571;BME280;58135;50.948;-1.458;2022-12-11T01:39:38;100551.71;;;-0.09;15.17
70571;BME280;58135;50.948;-1.458;2022-12-11T01:42:04;100548.65;;;0.01;15.15
70571;BME280;58135;50.948;-1.458;2022-12-11T01:46:55;100543.61;;;0.83;15.08
70571;BME280;58135;50.948;-1.458;2022-12-11T01:49:22;100547.74;;;0.04;15.10
70571;BME280;58135;50.948;-1.458;2022-12-11T01:51:49;100548.67;;;0.06;15.22
70571;BME280;58135;50.948;-1.458;2022-12-11T01:54:12;100546.22;;;-0.80;15.17
70571;BME280;58135;50.948;-1.458;2022-12-11T01:56:38;100547.16;;;0.98;15.12
70571;BME280;58135;50.948;-1.458;2022-12-11T01:59:04;100544.42;;;-0.89;15.15
70571;BME280;58135;50.948;-1.458;2022-12-11T02:01:32;100541.80;;;0.77;15.12
70571;BME280;58135;50.948;-1.458;2022-12-11T02:03:53;100539.39;;;0.56;15.00
70571;BME280;58135;50.948;-1.458;2022-12-11T02:06:29;100536.06;;;-1.34;15.12
70571;BME280;58135;50.948;-1.458;2022-12-11T02:08:43;100534.36;;;0.52;15.09
70571;BME280;58135;50.948;-1.458;2022-12-11T02:11:14;100533.14;;;1.44;15.05
70571;BME280;58135;50.948;-1.458;2022-12-11T02:13:41;100533.82;;;3.27;14.99
70571;BME280;58135;50.948;-1.458;2022-12-11T02:16:05;100529.99;;;-0.66;14.88
70571;BME280;58135;50.948;-1.458;2022-12-11T02:18:28;100529.66;;;-0.28;15.01
70571;BME280;58135;50.948;-1.458;2022-12-11T02:20:54;100530.20;;;-2.06;15.05
70571;BME280;58135;50.948;-1.458;2022-12-11T02:23:28;100531.70;;;-1.13;15.21
70571;BME280;58135;50.948;-1.458;2022-12-11T02:25:47;100531.04;;;0.80;15.21
70571;BME280;58135;50.948;-1.458;2022-12-11T02:28:16;100531.27;;;-0.29;15.09
70571;BME280;58135;50.948;-1.458;2022-12-11T02:30:36;100529.18;;;1.11;15.12
70571;BME280;58135;50.948;-1.458;2022-12-11T02:32:58;100527.17;;;-1.78;15.17
70571;BME280;58135;50.948;-1.458;2022-12-11T02:35:26;100528.08;;;-0.90;15.20
70571;BME280;58135;50.948;-1.458;2022-12-11T02:37:55;100527.86;;;-0.74;15.32
70571;BME280;58135;50.948;-1.458;2022-12-11T02:40:18;100522.79;;;-0.63;15.23
70571;BME280;58135;50.948;-1.458;2022-12-11T02:42:43;100518.22;;;-0.58;15.21
70571;BME280;58135;50.948;-1.458;2022-12-11T02:45:07;100511.34;;;-0.68;15.16
70571;BME280;58135;50.948;-1.458;2022-12-11T02:47:31;100511.62;;;0.30;15.18
70571;BME280;58135;50.948;-1.458;2022-12-11T02:49:58;100508.28;;;-0.44;15.09
70571;BME280;58135;50.948;-1.458;2022-12-11T02:52:24;100503.76;;;0.38;15.08
70571;BME280;58135;50.948;-1.458;2022-12-11T02:54:48;100498.53;;;-2.52;15.08
70571;BME280;58135;50.948;-1.458;2022-12-11T02:57:16;100493.89;;;0.58;15.03
70571;BME280;58135;50.948;-1.458;2022-12-11T02:59:40;100493.55;;;-2.00;15.11
70571;BME280;58135;50.948;-1.458;2022-12-11T03:02:04;100495.02;;;-1.23;15.21
70571;BME280;58135;50.948;-1.458;2022-12-11T03:04:28;100493.48;;;-2.06;15.26
70571;BME280;58135;50.948;-1.458;2022-12-11T03:06:57;100491.70;;;-1.96;15.20
70571;BME280;58135;50.948;-1.458;2022-12-11T03:09:20;100494.64;;;-0.16;15.18
70571;BME280;58135;50.948;-1.458;2022-12-11T03:11:45;100498.14;;;-0.10;15.17
70571;BME280;58135;50.948;-1.458;2022-12-11T03:14:11;100498.76;;;-0.13;15.20
70571;BME280;58135;50.948;-1.458;2022-12-11T03:16:37;100492.02;;;-1.02;15.12
70571;BME280;58135;50.948;-1.458;2022-12-11T03:19:08;100493.26;;;-0.24;15.03
70571;BME280;58135;50.948;-1.458;2022-12-11T03:21:32;100494.10;;;-1.24;15.24
70571;BME280;58135;50.948;-1.458;2022-12-11T03:23:56;100490.55;;;-1.50;15.45
70571;BME280;58135;50.948;-1.458;2022-12-11T03:26:17;100493.08;;;-2.32;15.46
70571;BME280;58135;50.948;-1.458;2022-12-11T03:28:45;100490.72;;;-1.35;15.41
70571;BME280;58135;50.948;-1.458;2022-12-11T03:31:11;100490.95;;;-1.31;15.45
70571;BME280;58135;50.948;-1.458;2022-12-11T03:33:36;100483.64;;;-1.13;15.48
70571;BME280;58135;50.948;-1.458;2022-12-11T03:36:01;100476.29;;;-1.94;15.37
70571;BME280;58135;50.948;-1.458;2022-12-11T03:38:27;100471.98;;;-1.05;15.45
70571;BME280;58135;50.948;-1.458;2022-12-11T03:40:53;100469.55;;;-1.10;15.43
70571;BME280;58135;50.948;-1.458;2022-12-11T03:43:16;100468.35;;;-1.17;15.43
70571;BME280;58135;50.948;-1.458;2022-12-11T03:45:40;100467.64;;;-1.34;15.59
70571;BME280;58135;50.948;-1.458;2022-12-11T03:48:05;100462.50;;;-3.10;15.49
70571;BME280;58135;50.948;-1.458;2022-12-11T03:50:32;100459.80;;;-1.54;15.48
70571;BME280;58135;50.948;-1.458;2022-12-11T03:52:57;100461.56;;;-0.55;15.49
70571;BME280;58135;50.948;-1.458;2022-12-11T03:55:22;100457.20;;;-2.31;15.55
70571;BME280;58135;50.948;-1.458;2022-12-11T03:57:47;100461.24;;;-0.48;15.54
70571;BME280;58135;50.948;-1.458;2022-12-11T04:00:15;100465.94;;;0.47;15.64
70571;BME280;58135;50.948;-1.458;2022-12-11T04:02:38;100467.46;;;0.70;15.55
70571;BME280;58135;50.948;-1.458;2022-12-11T04:05:04;100466.08;;;-0.99;15.36
70571;BME280;58135;50.948;-1.458;2022-12-11T04:07:29;100468.35;;;-1.18;15.31
70571;BME280;58135;50.948;-1.458;2022-12-11T04:09:54;100470.24;;;-3.12;15.37
70571;BME280;58135;50.948;-1.458;2022-12-11T04:12:19;100466.20;;;-0.65;15.37
70571;BME280;58135;50.948;-1.458;2022-12-11T04:14:45;100463.30;;;-0.67;15.47
70571;BME280;58135;50.948;-1.458;2022-12-11T04:17:10;100463.21;;;-1.52;15.49
70571;BME280;58135;50.948;-1.458;2022-12-11T04:19:35;100460.34;;;-1.66;15.52
70571;BME280;58135;50.948;-1.458;2022-12-11T04:22:01;100456.18;;;-0.63;15.52
70571;BME280;58135;50.948;-1.458;2022-12-11T04:24:27;100458.17;;;-2.67;15.41
70571;BME280;58135;50.948;-1.458;2022-12-11T04:26:53;100463.50;;;-2.50;15.49
70571;BME280;58135;50.948;-1.458;2022-12-11T04:29:18;100467.13;;;-1.77;15.36
70571;BME280;58135;50.948;-1.458;2022-12-11T04:31:44;100466.19;;;-1.10;15.43
70571;BME280;58135;50.948;-1.458;2022-12-11T04:34:10;100458.68;;;-1.92;15.59
70571;BME280;58135;50.948;-1.458;2022-12-11T04:36:36;100447.68;;;-0.11;15.31
70571;BME280;58135;50.948;-1.458;2022-12-11T04:39:03;100445.76;;;0.14;15.41
70571;BME280;58135;50.948;-1.458;2022-12-11T04:41:27;100447.12;;;-0.56;15.53
70571;BME280;58135;50.948;-1.458;2022-12-11T04:43:52;100445.59;;;-1.20;15.61
70571;BME280;58135;50.948;-1.458;2022-12-11T04:46:19;100441.11;;;-0.86;15.51
70571;BME280;58135;50.948;-1.458;2022-12-11T04:48:44;100440.37;;;-0.91;15.37
70571;BME280;58135;50.948;-1.458;2022-12-11T04:51:08;100439.05;;;-1.13;15.36
70571;BME280;58135;50.948;-1.458;2022-12-11T04:53:34;100436.14;;;-1.14;15.30
70571;BME280;58135;50.948;-1.458;2022-12-11T04:55:59;100438.76;;;0.30;15.33
70571;BME280;58135;50.948;-1.458;2022-12-11T04:58:25;100437.98;;;0.18;15.36
70571;BME280;58135;50.948;-1.458;2022-12-11T05:00:50;100437.14;;;-0.83;15.51
70571;BME280;58135;50.948;-1.458;2022-12-11T05:03:16;100438.62;;;-1.48;15.49
70571;BME280;58135;50.948;-1.458;2022-12-11T05:05:46;100433.41;;;-0.88;15.46
70571;BME280;58135;50.948;-1.458;2022-12-11T05:08:06;100427.22;;;-2.88;15.59
70571;BME280;58135;50.948;-1.458;2022-12-11T05:10:32;100426.76;;;-2.71;15.56
70571;BME280;58135;50.948;-1.458;2022-12-11T05:12:57;100425.47;;;-1.90;15.64
70571;BME280;58135;50.948;-1.458;2022-12-11T05:15:23;100427.68;;;-0.89;15.68
70571;BME280;58135;50.948;-1.458;2022-12-11T05:17:48;100429.80;;;-0.44;15.66
70571;BME280;58135;50.948;-1.458;2022-12-11T05:20:13;100435.49;;;0.11;15.64
70571;BME280;58135;50.948;-1.458;2022-12-11T05:22:39;100434.07;;;-0.48;15.58
70571;BME280;58135;50.948;-1.458;2022-12-11T05:25:06;100433.44;;;-1.17;15.51
70571;BME280;58135;50.948;-1.458;2022-12-11T05:27:31;100425.09;;;-0.12;15.43
70571;BME280;58135;50.948;-1.458;2022-12-11T05:29:56;100417.02;;;0.11;15.39
70571;BME280;58135;50.948;-1.458;2022-12-11T05:32:23;100411.86;;;-0.64;15.30
70571;BME280;58135;50.948;-1.458;2022-12-11T05:34:49;100407.01;;;-0.57;15.27
70571;BME280;58135;50.948;-1.458;2022-12-11T05:37:13;100402.20;;;-0.68;15.26
70571;BME280;58135;50.948;-1.458;2022-12-11T05:39:38;100403.34;;;-1.40;15.29
70571;BME280;58135;50.948;-1.458;2022-12-11T05:42:04;100404.43;;;-0.60;15.24
70571;BME280;58135;50.948;-1.458;2022-12-11T05:44:29;100402.83;;;-1.49;15.26
70571;BME280;58135;50.948;-1.458;2022-12-11T05:46:55;100402.62;;;-2.38;15.24
70571;BME280;58135;50.948;-1.458;2022-12-11T05:49:20;100402.64;;;-1.43;15.26
70571;BME280;58135;50.948;-1.458;2022-12-11T05:51:46;100403.85;;;-1.31;15.23
70571;BME280;58135;50.948;-1.458;2022-12-11T05:54:12;100401.20;;;-0.36;15.19
70571;BME280;58135;50.948;-1.458;2022-12-11T05:56:37;100398.77;;;-1.28;15.07
70571;BME280;58135;50.948;-1.458;2022-12-11T05:59:02;100394.72;;;-0.37;15.06
70571;BME280;58135;50.948;-1.458;2022-12-11T06:01:28;100389.41;;;-1.21;15.01
70571;BME280;58135;50.948;-1.458;2022-12-11T06:03:52;100387.37;;;-1.20;14.94
70571;BME280;58135;50.948;-1.458;2022-12-11T06:06:18;100387.64;;;-0.37;14.93
70571;BME280;58135;50.948;-1.458;2022-12-11T06:08:43;100390.10;;;-1.36;14.99
70571;BME280;58135;50.948;-1.458;2022-12-11T06:11:10;100395.05;;;-0.34;15.01
70571;BME280;58135;50.948;-1.458;2022-12-11T06:13:34;100398.52;;;0.49;15.02
70571;BME280;58135;50.948;-1.458;2022-12-11T06:16:00;100396.27;;;-0.58;14.79
70571;BME280;58135;50.948;-1.458;2022-12-11T06:18:25;100395.00;;;-1.56;14.86
70571;BME280;58135;50.948;-1.458;2022-12-11T06:20:50;100391.85;;;-1.49;14.97
70571;BME280;58135;50.948;-1.458;2022-12-11T06:23:16;100390.04;;;-0.46;14.92
70571;BME280;58135;50.948;-1.458;2022-12-11T06:25:42;100388.30;;;-0.81;14.87
70571;BME280;58135;50.948;-1.458;2022-12-11T06:28:07;100387.90;;;-1.61;15.12
70571;BME280;58135;50.948;-1.458;2022-12-11T06:30:32;100390.44;;;-0.79;15.31
70571;BME280;58135;50.948;-1.458;2022-12-11T06:32:57;100393.42;;;-0.49;15.30
70571;BME280;58135;50.948;-1.458;2022-12-11T06:35:22;100392.97;;;-1.10;15.22
70571;BME280;58135;50.948;-1.458;2022-12-11T06:37:48;100391.17;;;-1.04;15.18
70571;BME280;58135;50.948;-1.458;2022-12-11T06:40:13;100388.73;;;-1.83;15.17
70571;BME280;58135;50.948;-1.458;2022-12-11T06:42:39;100388.98;;;-2.62;15.23
70571;BME280;58135;50.948;-1.458;2022-12-11T06:45:06;100392.45;;;0.91;15.18
70571;BME280;58135;50.948;-1.458;2022-12-11T06:47:30;100398.58;;;0.22;15.19
70571;BME280;58135;50.948;-1.458;2022-12-11T06:49:56;100399.68;;;0.27;15.09
70571;BME280;58135;50.948;-1.458;2022-12-11T06:52:21;100394.23;;;-1.64;14.85
70571;BME280;58135;50.948;-1.458;2022-12-11T06:54:46;100386.58;;;-1.64;14.86
70571;BME280;58135;50.948;-1.458;2022-12-11T06:57:12;100386.10;;;-0.55;15.02
70571;BME280;58135;50.948;-1.458;2022-12-11T06:59:37;100384.82;;;-0.56;14.98
70571;BME280;58135;50.948;-1.458;2022-12-11T07:02:03;100388.53;;;-1.48;15.07
70571;BME280;58135;50.948;-1.458;2022-12-11T07:04:28;100388.56;;;-2.33;15.07
70571;BME280;58135;50.948;-1.458;2022-12-11T07:06:54;100389.47;;;-0.56;15.05
70571;BME280;58135;50.948;-1.458;2022-12-11T07:09:19;100385.54;;;-1.63;15.01
70571;BME280;58135;50.948;-1.458;2022-12-11T07:11:45;100385.97;;;-1.97;15.13
70571;BME280;58135;50.948;-1.458;2022-12-11T07:14:10;100384.68;;;1.60;15.25
70571;BME280;58135;50.948;-1.458;2022-12-11T07:16:36;100382.14;;;-0.76;15.28
70571;BME280;58135;50.948;-1.458;2022-12-11T07:19:01;100378.69;;;-0.72;15.24
70571;BME280;58135;50.948;-1.458;2022-12-11T07:21:26;100374.10;;;0.15;15.28
70571;BME280;58135;50.948;-1.458;2022-12-11T07:23:52;100372.47;;;-0.47;15.28
70571;BME280;58135;50.948;-1.458;2022-12-11T07:26:19;100379.31;;;-2.80;15.25
70571;BME280;58135;50.948;-1.458;2022-12-11T07:28:43;100380.54;;;0.81;15.18
70571;BME280;58135;50.948;-1.458;2022-12-11T07:31:11;100381.48;;;-0.02;15.20
70571;BME280;58135;50.948;-1.458;2022-12-11T07:33:34;100380.16;;;0.89;15.15
70571;BME280;58135;50.948;-1.458;2022-12-11T07:36:00;100381.90;;;0.08;15.15
70571;BME280;58135;50.948;-1.458;2022-12-11T07:38:25;100382.96;;;0.99;15.12
70571;BME280;58135;50.948;-1.458;2022-12-11T07:40:50;100380.69;;;-0.95;15.10
70571;BME280;58135;50.948;-1.458;2022-12-11T07:43:16;100378.82;;;-0.94;15.19
70571;BME280;58135;50.948;-1.458;2022-12-11T07:45:42;100383.28;;;0.11;15.23
70571;BME280;58135;50.948;-1.458;2022-12-11T07:48:07;100387.81;;;-1.80;15.19
70571;BME280;58135;50.948;-1.458;2022-12-11T07:50:32;100390.52;;;-0.50;15.36
70571;BME280;58135;50.948;-1.458;2022-12-11T07:52:58;100390.96;;;-0.50;15.57
70571;BME280;58135;50.948;-1.458;2022-12-11T07:55:23;100390.45;;;-2.11;15.55
70571;BME280;58135;50.948;-1.458;2022-12-11T07:57:48;100391.28;;;2.11;15.56
70571;BME280;58135;50.948;-1.458;2022-12-11T08:00:15;100389.00;;;-0.49;15.69
70571;BME280;58135;50.948;-1.458;2022-12-11T08:02:39;100385.64;;;-1.27;15.62
70571;BME280;58135;50.948;-1.458;2022-12-11T08:05:05;100385.04;;;-1.86;15.62
70571;BME280;58135;50.948;-1.458;2022-12-11T08:07:29;100382.51;;;-0.79;15.62
70571;BME280;58135;50.948;-1.458;2022-12-11T08:09:54;100385.39;;;0.12;15.64
70571;BME280;58135;50.948;-1.458;2022-12-11T08:12:20;100386.42;;;-0.98;15.75
70571;BME280;58135;50.948;-1.458;2022-12-11T08:14:45;100393.00;;;1.21;15.79
70571;BME280;58135;50.948;-1.458;2022-12-11T08:17:11;100392.50;;;-0.19;15.72
70571;BME280;58135;50.948;-1.458;2022-12-11T08:19:36;100390.48;;;-0.82;15.57
70571;BME280;58135;50.948;-1.458;2022-12-11T08:22:03;100386.63;;;-0.63;15.34
70571;BME280;58135;50.948;-1.458;2022-12-11T08:24:26;100387.02;;;0.26;15.47
70571;BME280;58135;50.948;-1.458;2022-12-11T08:26:52;100388.10;;;-0.59;15.46
70571;BME280;58135;50.948;-1.458;2022-12-11T08:29:17;100388.09;;;1.43;15.54
70571;BME280;58135;50.948;-1.458;2022-12-11T08:31:43;100387.54;;;0.63;15.50
70571;BME280;58135;50.948;-1.458;2022-12-11T08:34:08;100389.34;;;-1.81;15.50
70571;BME280;58135;50.948;-1.458;2022-12-11T08:36:33;100388.70;;;-1.54;15.52
70571;BME280;58135;50.948;-1.458;2022-12-11T08:38:59;100387.36;;;0.11;15.43
70571;BME280;58135;50.948;-1.458;2022-12-11T08:41:26;100383.89;;;-0.05;15.63
70571;BME280;58135;50.948;-1.458;2022-12-11T08:43:50;100380.53;;;-0.74;15.66
70571;BME280;58135;50.948;-1.458;2022-12-11T08:46:15;100383.23;;;0.36;15.68
70571;BME280;58135;50.948;-1.458;2022-12-11T08:48:41;100386.96;;;2.17;15.73
70571;BME280;58135;50.948;-1.458;2022-12-11T08:51:07;100388.59;;;0.05;15.76
70571;BME280;58135;50.948;-1.458;2022-12-11T08:53:32;100391.44;;;0.93;15.94
70571;BME280;58135;50.948;-1.458;2022-12-11T08:56:00;100386.48;;;1.00;15.94
70571;BME280;58135;50.948;-1.458;2022-12-11T08:58:22;100385.31;;;0.16;16.03
70571;BME280;58135;50.948;-1.458;2022-12-11T09:00:48;100386.34;;;-1.38;16.04
70571;BME280;58135;50.948;-1.458;2022-12-11T09:03:13;100384.98;;;1.60;15.99
70571;BME280;58135;50.948;-1.458;2022-12-11T09:05:38;100378.58;;;-0.81;15.99
70571;BME280;58135;50.948;-1.458;2022-12-11T09:08:04;100376.58;;;0.53;15.95
70571;BME280;58135;50.948;-1.458;2022-12-11T09:10:29;100378.43;;;0.93;15.89
70571;BME280;58135;50.948;-1.458;2022-12-11T09:12:55;100379.32;;;0.33;15.82
70571;BME280;58135;50.948;-1.458;2022-12-11T09:15:20;100376.59;;;1.43;15.82
70571;BME280;58135;50.948;-1.458;2022-12-11T09:17:46;100379.21;;;-0.10;15.72
70571;BME280;58135;50.948;-1.458;2022-12-11T09:20:11;100380.64;;;0.02;15.71
70571;BME280;58135;50.948;-1.458;2022-12-11T09:22:36;100378.16;;;1.85;15.67
70571;BME280;58135;50.948;-1.458;2022-12-11T09:25:03;100375.93;;;0.64;15.69
70571;BME280;58135;50.948;-1.458;2022-12-11T09:27:28;100372.05;;;0.58;15.82
70571;BME280;58135;50.948;-1.458;2022-12-11T09:29:53;100375.19;;;1.61;15.85
70571;BME280;58135;50.948;-1.458;2022-12-11T09:32:19;100368.73;;;0.96;15.83
70571;BME280;58135;50.948;-1.458;2022-12-11T09:34:44;100370.60;;;1.26;15.80
70571;BME280;58135;50.948;-1.458;2022-12-11T09:37:09;100372.53;;;2.36;15.79
70571;BME280;58135;50.948;-1.458;2022-12-11T09:39:35;100372.19;;;1.61;15.78
70571;BME280;58135;50.948;-1.458;2022-12-11T09:42:03;100375.40;;;1.55;15.79
70571;BME280;58135;50.948;-1.458;2022-12-11T09:44:31;100371.05;;;-0.24;15.90
70571;BME280;58135;50.948;-1.458;2022-12-11T09:46:52;100366.39;;;0.69;15.94
70571;BME280;58135;50.948;-1.458;2022-12-11T09:49:23;100367.23;;;1.56;15.95
70571;BME280;58135;50.948;-1.458;2022-12-11T09:51:46;100365.28;;;3.08;16.12
70571;BME280;58135;50.948;-1.458;2022-12-11T09:54:10;100368.11;;;1.61;16.14
70571;BME280;58135;50.948;-1.458;2022-12-11T09:56:39;100368.51;;;1.03;16.14
70571;BME280;58135;50.948;-1.458;2022-12-11T09:59:05;100368.44;;;0.54;16.06
70571;BME280;58135;50.948;-1.458;2022-12-11T10:01:32;100366.52;;;1.64;16.02
70571;BME280;58135;50.948;-1.458;2022-12-11T10:04:02;100362.37;;;2.73;16.01
70571;BME280;58135;50.948;-1.458;2022-12-11T10:06:20;100353.71;;;1.09;16.05
70571;BME280;58135;50.948;-1.458;2022-12-11T10:08:44;100354.33;;;3.94;16.08
70571;BME280;58135;50.948;-1.458;2022-12-11T10:11:21;100356.77;;;2.35;16.17
70571;BME280;58135;50.948;-1.458;2022-12-11T10:13:40;100355.81;;;3.38;16.28
70571;BME280;58135;50.948;-1.458;2022-12-11T10:16:01;100356.87;;;0.05;16.38
70571;BME280;58135;50.948;-1.458;2022-12-11T10:18:25;100355.07;;;2.85;16.19
70571;BME280;58135;50.948;-1.458;2022-12-11T10:20:49;100353.99;;;3.05;16.17
70571;BME280;58135;50.948;-1.458;2022-12-11T10:23:16;100350.84;;;3.19;16.14
70571;BME280;58135;50.948;-1.458;2022-12-11T10:25:43;100352.48;;;2.49;16.11
70571;BME280;58135;50.948;-1.458;2022-12-11T10:28:10;100349.57;;;0.82;16.02
70571;BME280;58135;50.948;-1.458;2022-12-11T10:30:34;100341.18;;;2.68;15.73
70571;BME280;58135;50.948;-1.458;2022-12-11T10:33:01;100340.36;;;0.47;15.85
70571;BME280;58135;50.948;-1.458;2022-12-11T10:35:28;100340.17;;;1.39;15.95
70571;BME280;58135;50.948;-1.458;2022-12-11T10:37:46;100333.11;;;2.53;15.96
70571;BME280;58135;50.948;-1.458;2022-12-11T10:40:12;100331.59;;;2.82;15.91
70571;BME280;58135;50.948;-1.458;2022-12-11T10:42:38;100331.82;;;2.07;15.87
70571;BME280;58135;50.948;-1.458;2022-12-11T10:45:04;100331.51;;;2.61;16.05
70571;BME280;58135;50.948;-1.458;2022-12-11T10:47:28;100331.05;;;2.81;16.12
70571;BME280;58135;50.948;-1.458;2022-12-11T10:49:55;100333.18;;;2.12;16.06
70571;BME280;58135;50.948;-1.458;2022-12-11T10:52:22;100338.16;;;3.22;16.03
70571;BME280;58135;50.948;-1.458;2022-12-11T10:54:45;100342.53;;;2.55;16.03
70571;BME280;58135;50.948;-1.458;2022-12-11T10:57:10;100344.72;;;3.65;15.98
70571;BME280;58135;50.948;-1.458;2022-12-11T10:59:37;100343.39;;;2.92;15.82
70571;BME280;58135;50.948;-1.458;2022-12-11T11:02:00;100341.24;;;3.01;15.81
70571;BME280;58135;50.948;-1.458;2022-12-11T11:04:29;100336.55;;;2.13;15.86
70571;BME280;58135;50.948;-1.458;2022-12-11T11:07:01;100333.38;;;3.98;15.88
70571;BME280;58135;50.948;-1.458;2022-12-11T11:09:27;100333.04;;;4.06;15.87
70571;BME280;58135;50.948;-1.458;2022-12-11T11:11:48;100328.88;;;4.05;15.59
70571;BME280;58135;50.948;-1.458;2022-12-11T11:14:12;100328.94;;;3.26;15.78
70571;BME280;58135;50.948;-1.458;2022-12-11T11:16:35;100328.72;;;3.44;15.75
70571;BME280;58135;50.948;-1.458;2022-12-11T11:18:57;100329.53;;;2.63;15.71
70571;BME280;58135;50.948;-1.458;2022-12-11T11:21:24;100331.33;;;4.44;15.72
70571;BME280;58135;50.948;-1.458;2022-12-11T11:23:50;100329.28;;;4.07;15.77
70571;BME280;58135;50.948;-1.458;2022-12-11T11:26:14;100327.51;;;2.03;15.81
70571;BME280;58135;50.948;-1.458;2022-12-11T11:28:40;100326.50;;;2.59;15.88
70571;BME280;58135;50.948;-1.458;2022-12-11T11:31:07;100322.29;;;1.33;16.05
70571;BME280;58135;50.948;-1.458;2022-12-11T11:33:32;100324.90;;;1.24;16.12
70571;BME280;58135;50.948;-1.458;2022-12-11T11:35:58;100328.34;;;1.67;16.10
70571;BME280;58135;50.948;-1.458;2022-12-11T11:38:25;100331.56;;;1.05;16.01
70571;BME280;58135;50.948;-1.458;2022-12-11T11:40:51;100331.34;;;4.58;15.91
70571;BME280;58135;50.948;-1.458;2022-12-11T11:43:17;100333.43;;;1.15;16.03
70571;BME280;58135;50.948;-1.458;2022-12-11T11:45:42;100331.54;;;0.49;15.87
70571;BME280;58135;50.948;-1.458;2022-12-11T11:48:12;100326.45;;;1.91;15.91
70571;BME280;58135;50.948;-1.458;2022-12-11T11:50:32;100322.07;;;3.24;16.00
70571;BME280;58135;50.948;-1.458;2022-12-11T11:53:01;100317.20;;;1.86;16.24
70571;BME280;58135;50.948;-1.458;2022-12-11T11:55:24;100311.74;;;2.39;16.47
70571;BME280;58135;50.948;-1.458;2022-12-11T11:57:48;100310.39;;;1.77;16.45
70571;BME280;58135;50.948;-1.458;2022-12-11T12:00:16;100309.65;;;0.51;16.89
70571;BME280;58135;50.948;-1.458;2022-12-11T12:02:35;100304.43;;;1.15;16.91
70571;BME280;58135;50.948;-1.458;2022-12-11T12:05:01;100306.00;;;2.72;16.75
70571;BME280;58135;50.948;-1.458;2022-12-11T12:07:32;100309.56;;;2.23;16.65
70571;BME280;58135;50.948;-1.458;2022-12-11T12:09:56;100315.06;;;3.46;16.57
70571;BME280;58135;50.948;-1.458;2022-12-11T12:12:22;100312.47;;;3.68;16.59
70571;BME280;58135;50.948;-1.458;2022-12-11T12:14:53;100311.67;;;3.96;16.52
70571;BME280;58135;50.948;-1.458;2022-12-11T12:17:14;100311.85;;;1.93;16.42
70571;BME280;58135;50.948;-1.458;2022-12-11T12:19:44;100313.09;;;1.99;16.47
70571;BME280;58135;50.948;-1.458;2022-12-11T12:22:04;100308.76;;;4.38;16.56
70571;BME280;58135;50.948;-1.458;2022-12-11T12:24:31;100305.28;;;1.33;16.64
70571;BME280;58135;50.948;-1.458;2022-12-11T12:26:52;100298.41;;;1.17;16.90
70571;BME280;58135;50.948;-1.458;2022-12-11T12:29:20;100295.95;;;0.06;17.20
70571;BME280;58135;50.948;-1.458;2022-12-11T12:31:49;100296.47;;;0.95;17.26
70571;BME280;58135;50.948;-1.458;2022-12-11T12:34:09;100294.54;;;2.00;17.33
70571;BME280;58135;50.948;-1.458;2022-12-11T12:36:33;100289.31;;;2.40;17.18